createdAt,value
2018-09-18T00:00:05.467Z,17.00
2018-09-18T00:02:34.467Z,17.00
2018-09-18T00:05:03.565Z,16.90
2018-09-18T00:07:32.720Z,16.90
2018-09-18T00:10:01.775Z,16.80
2018-09-18T00:12:30.852Z,16.80
2018-09-18T00:15:01.757Z,16.70
2018-09-18T00:17:30.808Z,16.70
2018-09-18T00:19:59.870Z,16.70
2018-09-18T00:22:29.182Z,16.60
2018-09-18T00:24:58.196Z,16.60
2018-09-18T00:27:27.251Z,16.50
2018-09-18T00:29:56.271Z,16.50
2018-09-18T00:32:25.266Z,16.40
2018-09-18T00:34:54.496Z,16.30
2018-09-18T00:37:23.473Z,16.20
2018-09-18T00:39:52.601Z,16.20
2018-09-18T00:42:21.589Z,16.10
2018-09-18T00:44:50.657Z,16.10
2018-09-18T00:47:19.682Z,16.10
2018-09-18T00:49:48.687Z,16.10
2018-09-18T00:52:18.736Z,16.00
2018-09-18T00:54:47.764Z,16.00
2018-09-18T00:57:16.820Z,16.00
2018-09-18T00:59:45.974Z,16.00
2018-09-18T01:02:15.163Z,16.00
2018-09-18T01:04:44.276Z,16.00
2018-09-18T01:07:13.507Z,16.00
2018-09-18T01:09:42.539Z,16.00
2018-09-18T01:12:11.519Z,16.00
2018-09-18T01:14:40.660Z,16.00
2018-09-18T01:17:09.715Z,16.00
2018-09-18T01:19:38.719Z,15.90
2018-09-18T01:22:08.119Z,15.90
2018-09-18T01:24:37.151Z,15.90
2018-09-18T01:27:06.314Z,15.80
2018-09-18T01:29:35.420Z,15.90
2018-09-18T01:32:04.485Z,15.80
2018-09-18T01:34:33.818Z,15.80
2018-09-18T01:37:02.876Z,15.70
2018-09-18T01:39:31.896Z,15.70
2018-09-18T01:42:00.903Z,15.70
2018-09-18T01:44:30.229Z,15.60
2018-09-18T01:46:59.198Z,15.60
2018-09-18T01:49:28.220Z,15.60
2018-09-18T01:51:57.275Z,15.50
2018-09-18T01:54:26.285Z,15.40
2018-09-18T01:56:55.378Z,15.40
2018-09-18T01:59:24.432Z,15.30
2018-09-18T02:01:53.439Z,15.30
2018-09-18T02:04:22.516Z,15.40
2018-09-18T02:06:51.572Z,15.30
2018-09-18T02:09:20.860Z,15.20
2018-09-18T02:11:49.940Z,15.10
2018-09-18T02:14:19.021Z,15.20
2018-09-18T02:16:48.019Z,15.10
2018-09-18T02:19:17.059Z,15.10
2018-09-18T02:21:46.080Z,15.10
2018-09-18T02:24:15.102Z,15.10
2018-09-18T02:26:44.137Z,15.00
2018-09-18T02:29:13.135Z,15.00
2018-09-18T02:31:42.140Z,14.90
2018-09-18T02:34:11.142Z,14.90
2018-09-18T02:36:40.207Z,14.90
2018-09-18T02:39:10.980Z,14.80
2018-09-18T02:41:40.204Z,14.80
2018-09-18T02:44:09.185Z,14.80
2018-09-18T02:46:38.207Z,14.90
2018-09-18T02:49:07.601Z,14.90
2018-09-18T02:51:36.595Z,14.90
2018-09-18T02:54:05.640Z,14.80
2018-09-18T02:56:34.672Z,14.80
2018-09-18T02:59:04.044Z,14.80
2018-09-18T03:01:33.055Z,14.80
2018-09-18T03:04:02.265Z,14.90
2018-09-18T03:06:31.503Z,14.80
2018-09-18T03:09:00.506Z,14.80
2018-09-18T03:11:29.693Z,14.80
2018-09-18T03:13:58.856Z,14.80
2018-09-18T03:16:27.905Z,14.70
2018-09-18T03:18:56.978Z,14.70
2018-09-18T03:21:25.974Z,14.60
2018-09-18T03:23:54.989Z,14.60
2018-09-18T03:26:30.774Z,14.60
2018-09-18T03:29:00.026Z,14.60
2018-09-18T03:31:29.040Z,14.50
2018-09-18T03:33:58.363Z,14.50
2018-09-18T03:36:27.767Z,14.50
2018-09-18T03:38:56.768Z,14.50
2018-09-18T03:41:25.780Z,14.50
2018-09-18T03:43:54.774Z,14.50
2018-09-18T03:46:23.791Z,14.50
2018-09-18T03:48:52.836Z,14.50
2018-09-18T03:51:21.874Z,14.40
2018-09-18T03:53:50.915Z,14.40
2018-09-18T03:56:19.919Z,14.30
2018-09-18T03:58:49.038Z,14.30
2018-09-18T04:01:18.048Z,14.30
2018-09-18T04:03:47.090Z,14.20
2018-09-18T04:06:16.129Z,14.20
2018-09-18T04:08:45.148Z,14.10
2018-09-18T04:11:14.177Z,14.10
2018-09-18T04:13:43.210Z,14.10
2018-09-18T04:16:12.262Z,14.00
2018-09-18T04:18:41.316Z,14.00
2018-09-18T04:21:10.355Z,14.00
2018-09-18T04:23:39.438Z,14.00
2018-09-18T04:26:08.448Z,14.00
2018-09-18T04:28:37.509Z,14.00
2018-09-18T04:31:06.548Z,13.90
2018-09-18T04:33:35.600Z,14.00
2018-09-18T04:36:04.639Z,14.00
2018-09-18T04:38:33.687Z,14.00
2018-09-18T04:41:02.771Z,14.00
2018-09-18T04:43:31.769Z,13.90
2018-09-18T04:46:00.830Z,13.90
2018-09-18T04:48:29.954Z,13.90
2018-09-18T04:50:59.008Z,13.90
2018-09-18T04:53:29.001Z,13.90
2018-09-18T04:55:58.022Z,13.90
2018-09-18T04:58:27.021Z,13.80
2018-09-18T05:00:56.022Z,13.70
2018-09-18T05:03:25.053Z,13.70
2018-09-18T05:05:54.108Z,13.60
2018-09-18T05:08:23.194Z,13.60
2018-09-18T05:10:52.272Z,13.60
2018-09-18T05:13:22.728Z,13.60
2018-09-18T05:15:51.893Z,13.50
2018-09-18T05:18:20.988Z,13.50
2018-09-18T05:20:51.162Z,13.50
2018-09-18T05:23:20.224Z,13.60
2018-09-18T05:25:49.398Z,13.60
2018-09-18T05:28:18.424Z,13.60
2018-09-18T05:30:47.490Z,13.50
2018-09-18T05:33:16.488Z,13.60
2018-09-18T05:35:45.494Z,13.60
2018-09-18T05:38:14.549Z,13.60
2018-09-18T05:40:43.891Z,13.70
2018-09-18T05:43:13.112Z,13.60
2018-09-18T05:45:42.091Z,13.60
2018-09-18T05:48:13.419Z,13.60
2018-09-18T05:50:43.055Z,13.70
2018-09-18T05:53:12.576Z,13.70
2018-09-18T05:55:41.865Z,13.70
2018-09-18T05:58:11.064Z,13.70
2018-09-18T06:00:40.118Z,13.80
2018-09-18T06:03:09.168Z,13.80
2018-09-18T06:05:38.268Z,13.90
2018-09-18T06:08:07.548Z,14.00
2018-09-18T06:10:36.592Z,14.00
2018-09-18T06:13:05.610Z,14.00
2018-09-18T06:15:34.985Z,14.10
2018-09-18T06:18:04.148Z,14.10
2018-09-18T06:20:33.296Z,14.30
2018-09-18T06:23:02.532Z,14.40
2018-09-18T06:25:31.706Z,14.50
2018-09-18T06:28:00.778Z,14.60
2018-09-18T06:30:29.812Z,14.60
2018-09-18T06:32:58.844Z,14.60
2018-09-18T06:35:27.940Z,14.60
2018-09-18T06:37:56.950Z,14.70
2018-09-18T06:40:26.002Z,14.80
2018-09-18T06:42:54.996Z,14.80
2018-09-18T06:45:24.035Z,14.90
2018-09-18T06:47:53.107Z,14.90
2018-09-18T06:50:22.338Z,15.00
2018-09-18T06:52:51.394Z,15.00
2018-09-18T06:55:20.404Z,15.10
2018-09-18T06:57:49.679Z,15.10
2018-09-18T07:00:18.705Z,15.30
2018-09-18T07:02:47.706Z,15.30
2018-09-18T07:05:17.020Z,15.40
2018-09-18T07:07:46.063Z,15.50
2018-09-18T07:10:15.107Z,15.60
2018-09-18T07:12:44.465Z,15.70
2018-09-18T07:15:13.600Z,15.80
2018-09-18T07:17:42.760Z,15.90
2018-09-18T07:20:11.933Z,16.00
2018-09-18T07:22:40.985Z,16.10
2018-09-18T07:25:10.120Z,16.30
2018-09-18T07:27:39.242Z,16.40
2018-09-18T07:30:09.212Z,16.50
2018-09-18T07:32:38.337Z,16.60
2018-09-18T07:35:07.606Z,16.60
2018-09-18T07:37:36.644Z,16.70
2018-09-18T07:40:05.760Z,16.80
2018-09-18T07:42:35.026Z,16.80
2018-09-18T07:45:04.773Z,16.90
2018-09-18T07:47:33.776Z,17.00
2018-09-18T07:50:02.816Z,17.00
2018-09-18T07:52:31.842Z,17.10
2018-09-18T07:55:00.893Z,17.20
2018-09-18T07:57:29.916Z,17.20
2018-09-18T07:59:58.935Z,17.20
2018-09-18T08:02:28.012Z,17.40
2018-09-18T08:04:57.240Z,17.50
2018-09-18T08:07:26.304Z,17.60
2018-09-18T08:09:55.442Z,17.80
2018-09-18T08:12:24.494Z,18.00
2018-09-18T08:14:53.600Z,18.10
2018-09-18T08:17:22.626Z,18.20
2018-09-18T08:19:51.767Z,18.30
2018-09-18T08:22:20.866Z,18.50
2018-09-18T08:24:49.906Z,18.60
2018-09-18T08:27:18.933Z,18.80
2018-09-18T08:29:47.982Z,19.00
2018-09-18T08:32:17.140Z,19.10
2018-09-18T08:34:46.191Z,19.10
2018-09-18T08:37:15.214Z,19.10
2018-09-18T08:39:44.315Z,19.30
2018-09-18T08:42:13.579Z,19.50
2018-09-18T08:44:42.618Z,19.60
2018-09-18T08:47:11.653Z,19.70
2018-09-18T08:49:41.180Z,19.80
2018-09-18T08:52:10.476Z,19.90
2018-09-18T08:54:39.649Z,19.90
2018-09-18T08:57:08.649Z,20.00
2018-09-18T08:59:37.711Z,20.10
2018-09-18T09:02:06.805Z,20.20
2018-09-18T09:04:36.128Z,20.40
2018-09-18T09:07:05.366Z,20.50
2018-09-18T09:09:34.604Z,20.70
2018-09-18T09:12:03.816Z,20.70
2018-09-18T09:14:32.933Z,20.80
2018-09-18T09:17:02.169Z,21.00
2018-09-18T09:19:31.275Z,21.20
2018-09-18T09:22:00.406Z,21.40
2018-09-18T09:24:29.602Z,21.50
2018-09-18T09:26:58.713Z,21.60
2018-09-18T09:29:28.045Z,21.80
2018-09-18T09:31:57.081Z,21.90
2018-09-18T09:34:26.308Z,22.10
2018-09-18T09:36:55.429Z,22.20
2018-09-18T09:39:24.605Z,22.40
2018-09-18T09:41:53.661Z,22.50
2018-09-18T09:44:22.866Z,22.70
2018-09-18T09:46:51.981Z,22.90
2018-09-18T09:49:20.988Z,23.00
2018-09-18T09:51:50.059Z,23.20
2018-09-18T09:54:19.056Z,23.20
2018-09-18T09:56:48.133Z,23.30
2018-09-18T09:59:17.751Z,23.30
2018-09-18T10:01:55.065Z,23.50
2018-09-18T10:04:24.178Z,23.60
2018-09-18T10:06:53.166Z,23.80
2018-09-18T10:09:22.287Z,23.80
2018-09-18T10:11:51.274Z,23.90
2018-09-18T10:14:20.357Z,24.10
2018-09-18T10:16:49.632Z,24.30
2018-09-18T10:19:19.067Z,24.40
2018-09-18T10:21:48.117Z,24.60
2018-09-18T10:24:17.181Z,24.80
2018-09-18T10:26:46.587Z,25.00
2018-09-18T10:29:15.773Z,25.20
2018-09-18T10:31:44.892Z,25.40
2018-09-18T10:34:14.120Z,25.60
2018-09-18T10:36:44.227Z,25.70
2018-09-18T10:39:13.446Z,25.70
2018-09-18T10:41:42.740Z,25.80
2018-09-18T10:44:12.071Z,25.90
2018-09-18T10:46:41.515Z,26.00
2018-09-18T10:49:10.952Z,26.10
2018-09-18T10:51:40.064Z,26.30
2018-09-18T10:54:09.253Z,26.60
2018-09-18T10:56:38.426Z,26.80
2018-09-18T10:59:08.585Z,27.30
2018-09-18T11:01:37.634Z,29.00
2018-09-18T11:04:07.568Z,31.50
2018-09-18T11:06:37.368Z,34.10
2018-09-18T11:09:08.982Z,35.50
2018-09-18T11:11:39.862Z,36.70
2018-09-18T11:14:10.621Z,37.50
2018-09-18T11:16:40.675Z,38.30
2018-09-18T11:19:10.598Z,39.20
2018-09-18T11:21:40.608Z,39.50
2018-09-18T11:24:10.400Z,40.10
2018-09-18T11:26:40.153Z,39.70
2018-09-18T11:29:09.802Z,40.00
2018-09-18T11:31:39.407Z,40.20
2018-09-18T11:34:09.025Z,40.40
2018-09-18T11:36:38.631Z,40.50
2018-09-18T11:39:09.237Z,40.70
2018-09-18T11:41:38.833Z,41.50
2018-09-18T11:44:08.435Z,41.60
2018-09-18T11:46:37.803Z,41.30
2018-09-18T11:49:07.296Z,41.50
2018-09-18T11:51:36.915Z,41.50
2018-09-18T11:54:06.746Z,41.50
2018-09-18T11:56:36.342Z,40.10
2018-09-18T11:59:06.161Z,39.10
2018-09-18T12:01:36.067Z,39.10
2018-09-18T12:04:06.787Z,39.80
2018-09-18T12:06:36.310Z,40.70
2018-09-18T12:09:08.719Z,41.40
2018-09-18T12:11:38.177Z,41.40
2018-09-18T12:14:07.974Z,41.70
2018-09-18T12:16:37.429Z,42.00
2018-09-18T12:19:07.377Z,42.40
2018-09-18T12:21:36.662Z,42.60
2018-09-18T12:24:06.039Z,42.90
2018-09-18T12:26:35.334Z,42.50
2018-09-18T12:29:04.651Z,42.30
2018-09-18T12:31:33.979Z,42.10
2018-09-18T12:34:03.299Z,42.80
2018-09-18T12:36:32.618Z,43.30
2018-09-18T12:39:01.918Z,43.50
2018-09-18T12:41:31.472Z,43.40
2018-09-18T12:44:00.850Z,43.80
2018-09-18T12:46:30.227Z,43.80
2018-09-18T12:48:59.688Z,44.90
2018-09-18T12:51:29.196Z,45.10
2018-09-18T12:53:58.557Z,45.40
2018-09-18T12:56:28.140Z,45.40
2018-09-18T12:58:57.754Z,45.20
2018-09-18T13:01:27.439Z,45.20
2018-09-18T13:03:56.923Z,45.60
2018-09-18T13:06:26.592Z,45.80
2018-09-18T13:08:56.331Z,45.20
2018-09-18T13:11:25.641Z,45.80
2018-09-18T13:13:55.104Z,46.10
2018-09-18T13:16:24.398Z,46.10
2018-09-18T13:18:53.999Z,46.70
2018-09-18T13:21:23.320Z,46.50
2018-09-18T13:23:52.820Z,47.00
2018-09-18T13:26:22.136Z,47.20
2018-09-18T13:28:51.425Z,47.30
2018-09-18T13:31:20.748Z,47.80
2018-09-18T13:33:52.088Z,47.40
2018-09-18T13:36:21.518Z,47.30
2018-09-18T13:38:51.037Z,46.60
2018-09-18T13:41:20.368Z,45.80
2018-09-18T13:43:49.795Z,46.10
2018-09-18T13:46:19.193Z,46.20
2018-09-18T13:48:48.676Z,44.40
2018-09-18T13:51:18.034Z,42.60
2018-09-18T13:53:47.316Z,41.70
2018-09-18T13:56:17.322Z,41.10
2018-09-18T13:58:46.749Z,41.80
2018-09-18T14:01:16.655Z,41.40
2018-09-18T14:03:46.454Z,41.40
2018-09-18T14:06:16.119Z,41.20
2018-09-18T14:08:45.435Z,41.40
2018-09-18T14:11:14.959Z,41.20
2018-09-18T14:13:44.331Z,40.10
2018-09-18T14:16:13.871Z,39.90
2018-09-18T14:18:43.301Z,40.10
2018-09-18T14:21:12.848Z,41.40
2018-09-18T14:23:42.177Z,41.60
2018-09-18T14:26:11.557Z,39.80
2018-09-18T14:28:41.071Z,40.40
2018-09-18T14:31:10.379Z,40.20
2018-09-18T14:33:40.049Z,40.90
2018-09-18T14:36:09.455Z,40.60
2018-09-18T14:38:39.252Z,41.30
2018-09-18T14:41:08.541Z,41.80
2018-09-18T14:43:38.190Z,41.40
2018-09-18T14:46:07.830Z,39.80
2018-09-18T14:48:37.088Z,39.70
2018-09-18T14:51:07.644Z,40.40
2018-09-18T14:53:37.122Z,41.30
2018-09-18T14:56:06.603Z,40.90
2018-09-18T14:58:36.511Z,39.90
2018-09-18T15:01:05.813Z,40.80
2018-09-18T15:03:35.085Z,40.00
2018-09-18T15:06:04.402Z,40.00
2018-09-18T15:08:33.698Z,41.10
2018-09-18T15:11:02.992Z,41.10
2018-09-18T15:13:32.508Z,41.20
2018-09-18T15:16:01.856Z,41.70
2018-09-18T15:18:31.304Z,41.30
2018-09-18T15:21:00.601Z,40.40
2018-09-18T15:23:30.253Z,40.10
2018-09-18T15:25:59.893Z,39.40
2018-09-18T15:28:29.646Z,38.80
2018-09-18T15:30:58.933Z,39.00
2018-09-18T15:33:28.546Z,39.20
2018-09-18T15:35:58.052Z,39.50
2018-09-18T15:38:27.755Z,39.50
2018-09-18T15:40:57.105Z,39.50
2018-09-18T15:43:26.738Z,39.00
2018-09-18T15:46:01.988Z,38.20
2018-09-18T15:48:31.828Z,37.10
2018-09-18T15:51:01.644Z,36.30
2018-09-18T15:53:31.265Z,35.20
2018-09-18T15:56:01.022Z,33.50
2018-09-18T15:58:30.626Z,32.90
2018-09-18T16:01:00.282Z,32.40
2018-09-18T16:03:29.919Z,31.90
2018-09-18T16:05:59.598Z,31.50
2018-09-18T16:08:29.206Z,32.10
2018-09-18T16:10:58.818Z,33.50
2018-09-18T16:13:28.493Z,34.00
2018-09-18T16:15:58.218Z,33.60
2018-09-18T16:18:27.963Z,33.00
2018-09-18T16:20:57.755Z,32.30
2018-09-18T16:23:27.361Z,31.80
2018-09-18T16:25:57.060Z,31.30
2018-09-18T16:28:26.751Z,31.00
2018-09-18T16:30:56.396Z,30.80
2018-09-18T16:33:26.093Z,30.70
2018-09-18T16:35:55.695Z,30.50
2018-09-18T16:38:25.253Z,30.30
2018-09-18T16:40:54.880Z,30.20
2018-09-18T16:43:24.494Z,29.90
2018-09-18T16:45:54.165Z,29.70
2018-09-18T16:48:23.985Z,29.60
2018-09-18T16:50:53.849Z,29.40
2018-09-18T16:53:23.474Z,29.20
2018-09-18T16:55:53.360Z,29.10
2018-09-18T16:58:23.005Z,28.90
2018-09-18T17:00:53.160Z,28.80
2018-09-18T17:03:22.744Z,28.60
2018-09-18T17:05:52.332Z,28.50
2018-09-18T17:08:21.952Z,28.40
2018-09-18T17:10:51.495Z,28.30
2018-09-18T17:13:21.149Z,28.20
2018-09-18T17:15:50.929Z,28.10
2018-09-18T17:18:20.786Z,27.90
2018-09-18T17:20:50.780Z,27.70
2018-09-18T17:23:20.450Z,27.60
2018-09-18T17:25:49.468Z,27.50
2018-09-18T17:28:18.575Z,27.40
2018-09-18T17:30:47.725Z,27.20
2018-09-18T17:33:16.770Z,27.00
2018-09-18T17:35:45.800Z,26.80
2018-09-18T17:38:15.183Z,26.70
2018-09-18T17:40:44.259Z,26.70
2018-09-18T17:43:13.349Z,26.60
2018-09-18T17:45:42.525Z,26.60
2018-09-18T17:48:11.568Z,26.50
2018-09-18T17:50:40.800Z,26.40
2018-09-18T17:53:09.922Z,26.30
2018-09-18T17:55:38.967Z,26.10
2018-09-18T17:58:08.057Z,26.00
2018-09-18T18:00:37.333Z,26.00
2018-09-18T18:03:06.409Z,25.90
2018-09-18T18:05:35.473Z,25.80
2018-09-18T18:08:04.916Z,25.80
2018-09-18T18:10:33.945Z,25.70
2018-09-18T18:13:02.989Z,25.60
2018-09-18T18:15:32.026Z,25.50
2018-09-18T18:18:01.060Z,25.50
2018-09-18T18:20:30.124Z,25.40
2018-09-18T18:22:59.267Z,25.30
2018-09-18T18:25:28.500Z,25.20
2018-09-18T18:27:57.517Z,25.10
2018-09-18T18:30:26.790Z,25.10
2018-09-18T18:32:55.825Z,25.10
2018-09-18T18:35:24.905Z,25.10
2018-09-18T18:37:54.188Z,25.00
2018-09-18T18:40:23.334Z,25.00
2018-09-18T18:42:52.451Z,25.00
2018-09-18T18:45:22.053Z,25.00
2018-09-18T18:47:51.369Z,24.70
2018-09-18T18:50:20.453Z,24.70
2018-09-18T18:52:49.476Z,24.60
2018-09-18T18:55:18.487Z,24.60
2018-09-18T18:57:47.506Z,24.50
2018-09-18T19:00:16.584Z,24.40
2018-09-18T19:02:45.847Z,24.40
2018-09-18T19:05:14.909Z,24.30
2018-09-18T19:07:43.918Z,24.40
2018-09-18T19:10:12.896Z,24.40
2018-09-18T19:12:42.191Z,24.30
2018-09-18T19:15:11.258Z,24.30
2018-09-18T19:17:40.287Z,24.30
2018-09-18T19:20:09.376Z,24.30
2018-09-18T19:22:38.484Z,24.20
2018-09-18T19:25:07.565Z,24.10
2018-09-18T19:27:36.804Z,24.00
2018-09-18T19:30:06.648Z,24.00
2018-09-18T19:32:35.790Z,23.90
2018-09-18T19:35:04.875Z,23.90
2018-09-18T19:37:34.255Z,23.90
2018-09-18T19:40:03.451Z,23.90
2018-09-18T19:42:32.516Z,23.90
2018-09-18T19:45:01.766Z,23.80
2018-09-18T19:47:32.476Z,23.80
2018-09-18T19:50:01.508Z,23.70
2018-09-18T19:52:30.573Z,23.70
2018-09-18T19:54:59.618Z,23.60
2018-09-18T19:57:28.830Z,23.60
2018-09-18T19:59:57.871Z,23.50
2018-09-18T20:02:26.964Z,23.50
2018-09-18T20:04:56.211Z,23.40
2018-09-18T20:07:25.265Z,23.50
2018-09-18T20:09:54.353Z,23.40
2018-09-18T20:12:23.378Z,23.50
2018-09-18T20:14:52.475Z,23.50
2018-09-18T20:17:21.652Z,23.40
2018-09-18T20:19:50.712Z,23.30
2018-09-18T20:22:19.957Z,23.30
2018-09-18T20:24:48.987Z,23.20
2018-09-18T20:27:18.010Z,23.10
2018-09-18T20:29:47.128Z,23.00
2018-09-18T20:32:16.328Z,22.90
2018-09-18T20:34:45.337Z,22.90
2018-09-18T20:37:14.414Z,22.80
2018-09-18T20:39:43.465Z,22.70
2018-09-18T20:42:12.546Z,22.70
2018-09-18T20:44:41.769Z,22.50
2018-09-18T20:47:10.901Z,22.40
2018-09-18T20:49:40.325Z,22.40
2018-09-18T20:52:09.321Z,22.30
2018-09-18T20:54:38.337Z,22.30
2018-09-18T20:57:07.389Z,22.20
2018-09-18T20:59:36.432Z,22.10
2018-09-18T21:02:05.887Z,22.10
2018-09-18T21:04:35.417Z,22.00
2018-09-18T21:07:04.478Z,22.00
2018-09-18T21:09:33.699Z,22.00
2018-09-18T21:12:02.725Z,22.00
2018-09-18T21:14:31.742Z,22.00
2018-09-18T21:17:01.126Z,22.00
2018-09-18T21:19:30.191Z,22.00
2018-09-18T21:21:59.453Z,22.00
2018-09-18T21:24:28.878Z,21.90
2018-09-18T21:26:57.896Z,21.90
2018-09-18T21:29:26.920Z,22.00
2018-09-18T21:31:55.958Z,22.00
2018-09-18T21:34:24.995Z,22.10
2018-09-18T21:36:54.033Z,22.20
2018-09-18T21:39:23.112Z,22.20
2018-09-18T21:41:52.167Z,22.20
2018-09-18T21:44:21.175Z,22.20
2018-09-18T21:46:50.233Z,22.20
2018-09-18T21:49:19.261Z,22.20
2018-09-18T21:51:48.303Z,22.20
2018-09-18T21:54:17.363Z,22.20
2018-09-18T21:56:46.366Z,22.20
2018-09-18T21:59:15.437Z,22.10
2018-09-18T22:01:44.828Z,22.10
2018-09-18T22:04:14.720Z,22.10
2018-09-18T22:06:43.752Z,22.10
2018-09-18T22:09:12.920Z,22.10
2018-09-18T22:11:42.014Z,22.10
2018-09-18T22:14:11.244Z,22.10
2018-09-18T22:16:40.342Z,22.10
2018-09-18T22:19:09.544Z,22.10
2018-09-18T22:21:38.560Z,22.10
2018-09-18T22:24:07.616Z,22.00
2018-09-18T22:26:36.642Z,22.00
2018-09-18T22:29:05.722Z,22.00
2018-09-18T22:31:34.752Z,22.00
2018-09-18T22:34:03.790Z,22.00
2018-09-18T22:36:32.840Z,22.00
2018-09-18T22:39:01.885Z,22.00
2018-09-18T22:41:31.106Z,21.90
2018-09-18T22:44:00.128Z,22.00
2018-09-18T22:46:29.171Z,22.00
2018-09-18T22:48:58.451Z,21.90
2018-09-18T22:51:27.555Z,21.90
2018-09-18T22:53:56.644Z,21.90
2018-09-18T22:56:25.925Z,21.90
2018-09-18T22:58:55.004Z,21.90
2018-09-18T23:01:24.076Z,21.90
2018-09-18T23:03:53.177Z,21.80
2018-09-18T23:06:22.178Z,21.80
2018-09-18T23:08:51.285Z,21.80
2018-09-18T23:11:20.309Z,21.70
2018-09-18T23:13:49.373Z,21.70
2018-09-18T23:16:18.411Z,21.70
2018-09-18T23:18:47.468Z,21.70
2018-09-18T23:21:16.698Z,21.60
2018-09-18T23:23:45.726Z,21.60
2018-09-18T23:26:14.779Z,21.60
2018-09-18T23:28:43.865Z,21.60
2018-09-18T23:31:12.914Z,21.50
2018-09-18T23:33:41.940Z,21.50
2018-09-18T23:36:10.994Z,21.50
2018-09-18T23:38:40.235Z,21.50
2018-09-18T23:41:09.347Z,21.50
2018-09-18T23:43:38.622Z,21.50
2018-09-18T23:46:07.620Z,21.40
2018-09-18T23:48:36.649Z,21.30
2018-09-18T23:51:05.977Z,21.40
2018-09-18T23:53:34.994Z,21.40
2018-09-18T23:56:04.062Z,21.40
2018-09-18T23:58:33.322Z,21.30
